Time;durP1;ratioP1;P1;durP2;ratioP2;P2;SDS_P1;SDS_P2;PMS_P1;PMS_P2;Temp;Humidity;BMP_temperature;BMP_pressure;BME280_temperature;BME280_humidity;BME280_pressure;Samples;Min_cycle;Max_cycle;Signal;HPM_P1;HPM_P2
2022/05/15 00:01:46;;;;;;;23.40;7.90;;;;;;;10.96;100.00;100928.06;5049410;28;20977;-67
2022/05/15 00:04:11;;;;;;;12.57;6.70;;;;;;;11.04;100.00;100941.75;5048738;28;20024;-66
2022/05/15 00:06:37;;;;;;;19.27;7.18;;;;;;;11.00;100.00;100932.28;5048526;28;20060;-66
2022/05/15 00:09:03;;;;;;;11.30;6.85;;;;;;;10.98;100.00;100935.91;5049329;28;20801;-67
2022/05/15 00:11:28;;;;;;;10.65;6.30;;;;;;;10.64;100.00;100894.44;5049787;28;20056;-67
2022/05/15 00:13:54;;;;;;;8.43;6.22;;;;;;;10.81;100.00;100934.00;5047325;28;20077;-67
2022/05/15 00:16:19;;;;;;;15.15;6.57;;;;;;;10.71;100.00;100915.09;5049628;28;20143;-67
2022/05/15 00:18:45;;;;;;;17.13;7.35;;;;;;;10.73;100.00;100922.94;5048671;28;20024;-68
2022/05/15 00:21:11;;;;;;;9.45;6.25;;;;;;;10.69;100.00;100937.13;5064394;28;20853;-67
2022/05/15 00:23:38;;;;;;;10.52;6.55;;;;;;;10.56;100.00;100925.41;5048407;28;20127;-66
2022/05/15 00:26:03;;;;;;;8.45;6.53;;;;;;;10.48;100.00;100917.84;5048291;28;20542;-66
2022/05/15 00:28:28;;;;;;;11.23;6.63;;;;;;;10.48;100.00;100922.25;5049658;28;20035;-66
2022/05/15 00:30:54;;;;;;;10.88;6.95;;;;;;;10.48;100.00;100923.09;5050035;28;20032;-66
2022/05/15 00:33:19;;;;;;;11.90;7.65;;;;;;;10.51;100.00;100919.50;5049304;28;20035;-66
2022/05/15 00:35:45;;;;;;;10.85;6.00;;;;;;;10.53;100.00;100917.66;5049922;28;20949;-66
2022/05/15 00:38:11;;;;;;;11.65;6.63;;;;;;;10.56;100.00;100925.41;5048653;28;20961;-65
2022/05/15 00:40:41;;;;;;;11.70;6.28;;;;;;;10.50;100.00;100923.03;5049742;28;20065;-65
2022/05/15 00:43:11;;;;;;;11.02;6.30;;;;;;;10.50;100.00;100923.91;5047864;28;20020;-65
2022/05/15 00:45:36;;;;;;;10.10;6.97;;;;;;;10.42;100.00;100914.63;5047597;28;20027;-65
2022/05/15 00:48:02;;;;;;;9.93;6.43;;;;;;;10.45;100.00;100925.00;5047907;28;20928;-65
2022/05/15 00:50:32;;;;;;;11.13;6.93;;;;;;;10.33;100.00;100907.13;5049469;28;20092;-65
2022/05/15 00:53:02;;;;;;;17.17;8.02;;;;;;;10.17;100.00;100884.09;5046607;28;20099;-65
2022/05/15 00:55:33;;;;;;;16.48;7.85;;;;;;;10.33;100.00;100917.63;5046555;28;20032;-65
2022/05/15 00:58:01;;;;;;;11.27;7.40;;;;;;;10.32;100.00;100913.28;5047300;28;20082;-65
2022/05/15 01:00:28;;;;;;;11.82;7.95;;;;;;;10.15;100.00;100906.09;5048622;28;20143;-66
2022/05/15 01:03:00;;;;;;;13.35;8.35;;;;;;;10.20;100.00;100914.66;5046744;28;20044;-66
2022/05/15 01:05:26;;;;;;;10.07;7.03;;;;;;;9.97;100.00;100881.38;5047925;28;20980;-67
2022/05/15 01:07:52;;;;;;;11.95;7.72;;;;;;;10.08;100.00;100917.72;5046355;28;20034;-67
2022/05/15 01:10:18;;;;;;;13.75;7.93;;;;;;;10.04;100.00;100914.34;5047131;28;20117;-67
2022/05/15 01:12:44;;;;;;;10.40;7.30;;;;;;;9.97;100.00;100898.94;5047075;28;20066;-67
2022/05/15 01:15:11;;;;;;;14.85;7.65;;;;;;;9.84;100.00;100890.66;5047721;28;20032;-67
2022/05/15 01:17:37;;;;;;;12.60;7.97;;;;;;;9.95;100.00;100914.72;5048909;28;20086;-67
2022/05/15 01:20:09;;;;;;;10.60;6.95;;;;;;;9.95;100.00;100924.38;5049499;28;20026;-67
2022/05/15 01:22:34;;;;;;;13.73;8.50;;;;;;;9.88;100.00;100913.25;5045860;28;20054;-67
2022/05/15 01:25:11;;;;;;;13.85;8.05;;;;;;;9.94;100.00;100927.91;5047382;28;20860;-67
2022/05/15 01:27:37;;;;;;;12.57;7.75;;;;;;;9.83;100.00;100909.13;5049482;28;20066;-66
2022/05/15 01:30:03;;;;;;;16.63;8.68;;;;;;;9.85;100.00;100915.16;5048401;28;20032;-66
2022/05/15 01:32:28;;;;;;;10.75;8.40;;;;;;;9.88;100.00;100921.13;5045606;28;20080;-66
2022/05/15 01:34:55;;;;;;;11.52;8.10;;;;;;;9.83;100.00;100923.09;5062738;28;20958;-66
2022/05/15 01:37:20;;;;;;;12.63;7.93;;;;;;;9.74;100.00;100905.91;5046465;28;20036;-66
2022/05/15 01:39:46;;;;;;;11.02;7.55;;;;;;;9.77;100.00;100915.44;5062735;28;20032;-66
2022/05/15 01:42:11;;;;;;;11.00;7.53;;;;;;;9.69;100.00;100902.63;5047399;28;20036;-66
2022/05/15 01:44:36;;;;;;;13.20;7.82;;;;;;;9.73;100.00;100912.06;5046813;28;20024;-66
2022/05/15 01:47:02;;;;;;;15.50;8.35;;;;;;;9.68;100.00;100900.06;5048244;28;20092;-66
2022/05/15 01:49:27;;;;;;;12.77;8.95;;;;;;;9.72;100.00;100904.28;5047961;28;20849;-66
2022/05/15 01:51:53;;;;;;;12.73;8.70;;;;;;;9.60;100.00;100895.09;5046365;28;20133;-65
2022/05/15 01:54:18;;;;;;;11.35;8.05;;;;;;;9.70;100.00;100904.31;5045979;28;20885;-65
2022/05/15 01:56:44;;;;;;;10.75;8.20;;;;;;;9.68;100.00;100910.56;5048023;28;20036;-66
2022/05/15 01:59:09;;;;;;;13.80;9.02;;;;;;;9.60;100.00;100902.97;5046606;28;20555;-66
2022/05/15 02:01:35;;;;;;;13.52;8.80;;;;;;;9.61;100.00;100909.06;5045464;28;20945;-66
2022/05/15 02:04:01;;;;;;;13.82;9.30;;;;;;;9.63;100.00;100908.09;5033598;28;20928;-66
2022/05/15 02:06:30;;;;;;;14.68;9.70;;;;;;;9.53;100.00;100903.28;5026887;28;20029;-66
2022/05/15 02:08:57;;;;;;;14.18;9.25;;;;;;;9.54;100.00;100902.34;5042877;28;20040;-65
2022/05/15 02:11:22;;;;;;;19.80;8.43;;;;;;;9.56;100.00;100911.03;5026158;28;20128;-66
2022/05/15 02:13:48;;;;;;;11.93;9.05;;;;;;;9.45;100.00;100895.69;5027624;28;20850;-66
2022/05/15 02:16:13;;;;;;;11.70;8.70;;;;;;;9.51;100.00;100911.19;5026011;28;20052;-66
2022/05/15 02:18:38;;;;;;;15.88;9.60;;;;;;;9.47;100.00;100900.84;5026573;28;20085;-67
2022/05/15 02:21:04;;;;;;;16.63;9.95;;;;;;;9.21;100.00;100852.88;5026244;28;20098;-66
2022/05/15 02:23:30;;;;;;;12.02;9.55;;;;;;;9.51;100.00;100902.47;5026368;28;20893;-66
2022/05/15 02:25:55;;;;;;;14.45;9.75;;;;;;;9.46;100.00;100896.56;5041809;28;20823;-66
2022/05/15 02:28:21;;;;;;;14.93;9.57;;;;;;;9.43;100.00;100894.88;5027465;28;20036;-66
2022/05/15 02:30:50;;;;;;;12.00;9.57;;;;;;;9.40;100.00;100889.75;5025890;28;20046;-66
2022/05/15 02:33:16;;;;;;;21.48;10.50;;;;;;;9.47;100.00;100900.84;5041511;28;20094;-66
2022/05/15 02:35:41;;;;;;;15.68;10.07;;;;;;;9.48;100.00;100907.81;5027600;28;20138;-66
2022/05/15 02:38:07;;;;;;;26.60;9.80;;;;;;;9.34;100.00;100868.16;5026252;28;20086;-66
2022/05/15 02:40:32;;;;;;;17.42;9.43;;;;;;;9.39;100.00;100887.19;5026023;28;20024;-66
2022/05/15 02:42:58;;;;;;;13.45;9.63;;;;;;;9.34;100.00;100881.25;5026359;28;20032;-66
2022/05/15 02:45:24;;;;;;;18.45;11.35;;;;;;;9.45;100.00;100897.44;5042880;28;20036;-66
2022/05/15 02:47:50;;;;;;;16.02;9.43;;;;;;;9.38;100.00;100898.59;5026144;28;20032;-66
2022/05/15 02:53:00;;;;;;;19.70;9.88;;;;;;;9.28;100.00;100903.31;5025768;28;20898;-66
2022/05/15 02:55:25;;;;;;;12.48;8.55;;;;;;;9.29;100.00;100896.31;5041989;28;20024;-66
2022/05/15 02:57:51;;;;;;;17.92;10.25;;;;;;;9.05;100.00;100846.50;5042853;28;20817;-67
2022/05/15 03:00:18;;;;;;;20.30;9.38;;;;;;;9.19;100.00;100864.34;5041486;28;20039;-66
2022/05/15 03:02:43;;;;;;;18.38;9.73;;;;;;;9.35;100.00;100883.84;5041570;28;20381;-66
2022/05/15 03:05:10;;;;;;;21.08;11.35;;;;;;;9.55;100.00;100888.31;5025708;28;20831;-66
2022/05/15 03:07:36;;;;;;;17.90;11.48;;;;;;;9.65;100.00;100889.69;5025494;28;20128;-66
2022/05/15 03:10:02;;;;;;;15.88;11.18;;;;;;;9.68;100.00;100873.81;5010229;28;20024;-66
2022/05/15 03:12:27;;;;;;;19.52;11.18;;;;;;;9.77;100.00;100872.63;5041919;28;20025;-66
2022/05/15 03:14:53;;;;;;;15.38;11.00;;;;;;;9.84;100.00;100869.66;5025572;28;20036;-66
2022/05/15 03:17:19;;;;;;;16.05;10.30;;;;;;;9.91;100.00;100871.13;5024726;28;20056;-65
2022/05/15 03:19:45;;;;;;;18.55;11.40;;;;;;;9.93;100.00;100861.44;5040732;28;20807;-65
2022/05/15 03:22:10;;;;;;;15.70;9.57;;;;;;;10.04;100.00;100867.09;5024427;28;20043;-65
2022/05/15 03:24:35;;;;;;;20.85;12.23;;;;;;;10.09;100.00;100866.94;5039515;28;20036;-65
2022/05/15 03:27:01;;;;;;;16.25;11.13;;;;;;;10.13;100.00;100861.50;5024499;28;20135;-65
2022/05/15 03:29:27;;;;;;;18.42;11.43;;;;;;;10.20;100.00;100865.63;5025117;28;20032;-66
2022/05/15 03:31:53;;;;;;;19.17;10.52;;;;;;;10.33;100.00;100883.47;5024054;28;20032;-66
2022/05/15 03:34:18;;;;;;;17.65;9.88;;;;;;;10.36;100.00;100868.44;5026443;28;20039;-65
2022/05/15 03:36:46;;;;;;;13.77;9.75;;;;;;;10.32;100.00;100856.34;5024406;28;20836;-66
2022/05/15 03:39:13;;;;;;;18.38;11.15;;;;;;;10.41;100.00;100871.72;5024962;28;20323;-66
2022/05/15 03:41:39;;;;;;;14.40;10.68;;;;;;;10.40;100.00;100874.44;5025443;28;20912;-66
2022/05/15 03:44:04;;;;;;;21.27;11.90;;;;;;;10.42;100.00;100870.81;5024188;28;20127;-67
2022/05/15 03:46:30;;;;;;;16.63;11.18;;;;;;;10.37;100.00;100858.81;5025349;28;20930;-67
2022/05/15 03:48:56;;;;;;;17.80;10.65;;;;;;;10.42;100.00;100860.31;5024396;28;20594;-66
2022/05/15 03:51:22;;;;;;;18.13;10.60;;;;;;;10.47;100.00;100868.00;5024304;28;20074;-66
2022/05/15 03:53:47;;;;;;;19.75;11.25;;;;;;;10.47;100.00;100871.50;5024348;28;21040;-66
2022/05/15 03:56:12;;;;;;;12.65;10.20;;;;;;;10.55;100.00;100879.88;5029257;28;20077;-66
2022/05/15 03:58:38;;;;;;;15.85;11.15;;;;;;;10.47;100.00;100865.38;5027949;28;20033;-66
2022/05/15 04:01:05;;;;;;;20.33;11.77;;;;;;;10.55;100.00;100881.66;5027414;28;20024;-66
2022/05/15 04:03:30;;;;;;;20.73;11.45;;;;;;;10.59;100.00;100885.88;5026129;28;20032;-67
2022/05/15 04:05:56;;;;;;;25.17;11.25;;;;;;;10.35;100.00;100850.13;5027732;28;20087;-66
2022/05/15 04:08:21;;;;;;;21.52;10.88;;;;;;;10.50;100.00;100871.34;5031053;28;20044;-65
2022/05/15 04:10:47;;;;;;;14.82;10.82;;;;;;;10.53;100.00;100876.47;5029734;28;20028;-67
2022/05/15 04:13:12;;;;;;;20.88;11.32;;;;;;;10.47;100.00;100865.38;5029658;28;20079;-66
2022/05/15 04:15:38;;;;;;;17.35;11.07;;;;;;;10.60;100.00;100884.97;5027823;28;20265;-66
2022/05/15 04:18:05;;;;;;;23.67;11.45;;;;;;;10.61;100.00;100879.63;5027771;28;20988;-66
2022/05/15 04:20:32;;;;;;;18.08;11.48;;;;;;;10.63;100.00;100882.19;5010140;28;20181;-66
2022/05/15 04:22:57;;;;;;;17.10;10.48;;;;;;;10.66;100.00;100884.69;5026750;28;20025;-66
2022/05/15 04:25:23;;;;;;;15.43;10.98;;;;;;;10.62;100.00;100868.19;5029273;28;20082;-66
2022/05/15 04:27:49;;;;;;;22.52;11.93;;;;;;;10.73;100.00;100883.50;5027760;28;20917;-66
2022/05/15 04:30:20;;;;;;;15.93;10.95;;;;;;;10.76;100.00;100884.25;5027291;28;20036;-66
2022/05/15 04:32:45;;;;;;;15.63;10.40;;;;;;;10.43;100.00;100824.38;5028758;28;20032;-66
2022/05/15 04:35:11;;;;;;;18.52;11.48;;;;;;;10.76;100.00;100880.75;5027454;28;20028;-66
2022/05/15 04:37:39;;;;;;;13.43;11.07;;;;;;;10.76;100.00;100872.88;5029047;28;20107;-66
2022/05/15 04:40:05;;;;;;;17.08;11.57;;;;;;;10.68;100.00;100857.41;5043841;28;20028;-66
2022/05/15 04:42:31;;;;;;;19.48;11.75;;;;;;;10.93;100.00;100886.13;5028003;28;20032;-66
2022/05/15 04:44:56;;;;;;;15.20;10.18;;;;;;;10.97;100.00;100889.47;5044271;28;20030;-67
2022/05/15 04:47:22;;;;;;;14.85;9.75;;;;;;;10.92;100.00;100873.03;5026883;28;20029;-66
2022/05/15 04:49:49;;;;;;;18.67;10.73;;;;;;;11.11;100.00;100901.13;5028129;28;20129;-66
2022/05/15 04:52:15;;;;;;;19.85;11.70;;;;;;;11.08;100.00;100896.00;5028703;28;20032;-66
2022/05/15 04:54:40;;;;;;;20.40;11.73;;;;;;;11.12;100.00;100888.78;5028695;28;20439;-66
2022/05/15 04:57:06;;;;;;;18.73;10.73;;;;;;;11.24;100.00;100894.38;5026847;28;20951;-66
2022/05/15 04:59:31;;;;;;;13.23;10.50;;;;;;;11.26;100.00;100894.28;5028343;28;20056;-66
2022/05/15 05:01:58;;;;;;;14.18;11.32;;;;;;;11.34;100.00;100902.72;5026958;28;20048;-66
2022/05/15 05:04:24;;;;;;;16.20;11.15;;;;;;;11.14;100.00;100864.16;5027557;28;20107;-66
2022/05/15 05:06:49;;;;;;;13.38;10.60;;;;;;;11.35;100.00;100885.16;5042418;28;20112;-66
2022/05/15 05:09:15;;;;;;;22.20;11.65;;;;;;;11.39;100.00;100894.63;5026506;28;20791;-66
2022/05/15 05:11:41;;;;;;;20.25;12.43;;;;;;;11.51;100.00;100900.16;5027059;28;20170;-66
2022/05/15 05:14:07;;;;;;;16.55;11.70;;;;;;;11.56;100.00;100898.16;5028637;28;20024;-66
2022/05/15 05:16:33;;;;;;;14.85;10.48;;;;;;;11.67;100.00;100895.88;5030205;28;20031;-66
2022/05/15 05:18:59;;;;;;;15.85;11.55;;;;;;;11.59;100.00;100878.75;5031450;28;20870;-66
2022/05/15 05:21:24;;;;;;;15.77;10.65;;;;;;;11.75;100.00;100890.31;5031421;28;20040;-66
2022/05/15 05:23:50;;;;;;;14.55;9.40;;;;;;;11.81;100.00;100887.38;5031158;28;20033;-66
2022/05/15 05:26:15;;;;;;;19.55;10.80;;;;;;;11.94;100.00;100898.16;5035039;28;20083;-66
2022/05/15 05:28:40;;;;;;;16.75;10.10;;;;;;;12.04;100.00;100896.81;5035599;28;20967;-66
2022/05/15 05:31:06;;;;;;;17.15;11.00;;;;;;;11.95;100.00;100870.91;5053772;28;20028;-66
2022/05/15 05:33:31;;;;;;;16.98;10.43;;;;;;;12.11;100.00;100887.69;5059150;28;20372;-66
2022/05/15 05:35:57;;;;;;;19.23;11.35;;;;;;;12.18;100.00;100889.94;5058948;28;20027;-66
2022/05/15 05:38:22;;;;;;;15.98;10.60;;;;;;;12.06;100.00;100850.19;5062143;28;20024;-66
2022/05/15 05:40:48;;;;;;;25.23;10.68;;;;;;;12.23;100.00;100869.47;5063604;28;20138;-66
2022/05/15 05:43:13;;;;;;;16.15;9.57;;;;;;;12.48;100.00;100889.34;5065932;28;20032;-66
2022/05/15 05:45:39;;;;;;;21.08;9.80;;;;;;;12.63;100.00;100896.50;5066453;28;20042;-66
2022/05/15 05:48:05;;;;;;;14.50;9.43;;;;;;;12.61;100.00;100877.25;5064332;28;20042;-66
2022/05/15 05:50:30;;;;;;;12.63;8.98;;;;;;;12.83;100.00;100891.06;5071333;28;20039;-66
2022/05/15 05:52:57;;;;;;;18.33;9.02;;;;;;;12.92;100.00;100901.13;5063525;28;20031;-67
2022/05/15 05:55:23;;;;;;;12.75;8.82;;;;;;;12.90;100.00;100881.91;5060890;28;20027;-67
2022/05/15 05:57:49;;;;;;;15.63;10.25;;;;;;;12.99;100.00;100891.97;5065813;28;20920;-67
2022/05/15 06:00:19;;;;;;;11.05;8.40;;;;;;;13.14;100.00;100906.19;5065870;28;20036;-67
2022/05/15 06:02:45;;;;;;;14.90;9.07;;;;;;;13.24;100.00;100908.25;5067285;28;20025;-67
2022/05/15 06:05:11;;;;;;;15.48;9.80;;;;;;;13.34;100.00;100891.94;5068061;28;20028;-67
2022/05/15 06:07:37;;;;;;;15.65;9.13;;;;;;;13.35;100.00;100872.53;5065180;28;20424;-67
2022/05/15 06:10:05;;;;;;;12.52;7.90;;;;;;;13.54;100.00;100894.34;5052951;28;20957;-67
2022/05/15 06:12:30;;;;;;;10.55;8.40;;;;;;;13.58;100.00;100885.31;5043117;28;20097;-67
2022/05/15 06:14:56;;;;;;;10.65;8.60;;;;;;;13.65;100.00;100891.97;5052228;28;20024;-67
2022/05/15 06:17:24;;;;;;;15.70;9.13;;;;;;;13.76;100.00;100890.44;5064094;28;20034;-67
2022/05/15 06:19:49;;;;;;;11.43;7.80;;;;;;;13.87;100.00;100903.06;5065814;28;20054;-67
2022/05/15 06:22:15;;;;;;;16.48;8.70;;;;;;;13.98;100.00;100887.47;5066981;28;20023;-66
2022/05/15 06:24:40;;;;;;;14.35;9.65;;;;;;;14.05;100.00;100888.81;5065704;28;20638;-67
2022/05/15 06:27:06;;;;;;;22.48;7.75;;;;;;;13.95;100.00;100860.34;5065986;28;20045;-67
2022/05/15 06:29:32;;;;;;;10.50;8.15;;;;;;;14.21;100.00;100883.50;5063649;28;20028;-67
2022/05/15 06:31:59;;;;;;;12.32;8.77;;;;;;;14.39;100.00;100905.41;5059075;28;20870;-67
2022/05/15 06:34:24;;;;;;;14.18;8.65;;;;;;;14.47;100.00;100904.03;5052662;28;20028;-67
2022/05/15 06:36:49;;;;;;;15.30;7.40;;;;;;;14.50;100.00;100887.16;5057284;28;20081;-67
2022/05/15 06:39:15;;;;;;;13.07;7.60;;;;;;;14.55;100.00;100896.50;5057525;28;20047;-67
2022/05/15 06:41:40;;;;;;;11.88;7.38;;;;;;;14.63;100.00;100904.00;5055217;28;20024;-67
2022/05/15 06:44:06;;;;;;;11.27;7.30;;;;;;;14.67;100.00;100894.91;5056269;28;20035;-66
2022/05/15 06:46:32;;;;;;;12.10;7.20;;;;;;;14.48;100.00;100852.84;5054668;28;20032;-66
2022/05/15 06:48:57;;;;;;;11.55;8.25;;;;;;;14.82;100.00;100899.31;5052363;28;20035;-67
2022/05/15 06:51:23;;;;;;;9.50;6.97;;;;;;;14.87;100.00;100901.69;5038377;28;21037;-66
2022/05/15 06:53:49;;;;;;;10.38;7.38;;;;;;;14.95;100.00;100902.94;5046718;28;20100;-67
2022/05/15 06:59:00;;;;;;;14.73;7.43;;;;;;;14.98;100.00;100883.34;5041809;28;20094;-67
2022/05/15 07:01:25;;;;;;;12.38;7.95;;;;;;;15.13;100.00;100893.03;5028053;28;20020;-67
2022/05/15 07:03:51;;;;;;;15.57;7.65;;;;;;;15.31;100.00;100908.63;5026015;28;20029;-66
2022/05/15 07:06:16;;;;;;;16.17;8.32;;;;;;;15.26;100.00;100872.78;5025750;28;20063;-67
2022/05/15 07:08:42;;;;;;;12.40;6.90;;;;;;;15.52;100.00;100895.03;5042833;28;20046;-66
2022/05/15 07:11:10;;;;;;;14.60;7.38;;;;;;;15.55;100.00;100886.88;5024923;28;20033;-67
2022/05/15 07:13:36;;;;;;;26.95;7.22;;;;;;;15.63;100.00;100887.25;5040955;28;20218;-66
2022/05/15 07:16:01;;;;;;;9.43;5.70;;;;;;;15.75;100.00;100889.97;5025997;28;20879;-67
2022/05/15 07:18:26;;;;;;;9.30;6.55;;;;;;;15.92;100.00;100888.91;5024694;28;20024;-67
2022/05/15 07:20:52;;;;;;;9.55;6.32;;;;;;;16.05;100.00;100881.88;5026995;28;20618;-67
2022/05/15 07:23:19;;;;;;;8.75;5.75;;;;;;;16.26;100.00;100893.72;5023830;28;20175;-66
2022/05/15 07:25:45;;;;;;;10.57;6.53;;;;;;;16.32;100.00;100890.66;5040822;28;20032;-67
2022/05/15 07:28:10;;;;;;;12.40;5.65;;;;;;;16.18;100.00;100853.59;5025752;28;20113;-67
2022/05/15 07:30:36;;;;;;;9.73;5.75;;;;;;;16.38;100.00;100867.34;5027852;28;20892;-66
2022/05/15 07:33:01;;;;;;;12.93;5.72;;;;;;;16.61;100.00;100887.91;5044897;28;20958;-67
2022/05/15 07:35:28;;;;;;;12.88;5.60;;;;;;;16.73;100.00;100890.56;5028761;28;20067;-67
2022/05/15 07:37:53;;;;;;;8.30;5.00;;;;;;;16.91;100.00;100891.13;5028675;28;20044;-67
2022/05/15 07:40:19;;;;;;;13.35;6.68;;;;;;;16.99;100.00;100885.31;5028341;28;20040;-67
2022/05/15 07:42:44;;;;;;;9.55;5.80;;;;;;;17.13;100.00;100883.41;5027745;28;20102;-67
2022/05/15 07:45:11;;;;;;;7.50;4.15;;;;;;;17.23;100.00;100891.56;5031160;28;20032;-66
2022/05/15 07:47:36;;;;;;;11.27;5.57;;;;;;;17.33;100.00;100884.66;5030277;28;20059;-66
2022/05/15 07:50:02;;;;;;;10.73;5.28;;;;;;;17.35;100.00;100878.28;5046868;28;20241;-66
2022/05/15 07:52:28;;;;;;;10.35;5.28;;;;;;;17.45;100.00;100881.13;5031398;28;20032;-67
2022/05/15 07:54:53;;;;;;;11.98;5.00;;;;;;;17.52;100.00;100877.06;5030072;28;20033;-66
2022/05/15 07:57:18;;;;;;;8.23;5.13;;;;;;;17.53;100.00;100873.47;5028262;28;20093;-66
2022/05/15 07:59:45;;;;;;;11.02;4.60;;;;;;;17.66;100.00;100871.66;5027062;28;20888;-66
2022/05/15 08:02:10;;;;;;;10.13;5.13;;;;;;;17.73;100.00;100859.63;5027992;28;20926;-67
2022/05/15 08:10:05;;;;;;;13.23;5.32;;;;;;;18.15;100.00;100876.88;5029214;28;20151;-67
2022/05/15 08:12:30;;;;;;;9.02;4.07;;;;;;;18.05;100.00;100849.28;5026877;28;20032;-66
2022/05/15 08:14:56;;;;;;;11.55;4.38;;;;;;;18.32;100.00;100873.81;5029697;28;20025;-66
2022/05/15 08:17:21;;;;;;;9.45;4.72;;;;;;;18.37;100.00;100858.38;5029633;28;20800;-66
2022/05/15 08:25:17;;;;;;;7.72;3.92;;;;;;;18.76;100.00;100851.84;5047498;28;20039;-67
2022/05/15 08:27:43;;;;;;;11.15;5.05;;;;;;;18.89;100.00;100851.78;5045836;28;20032;-66
2022/05/15 08:30:09;;;;;;;7.45;4.03;;;;;;;18.96;100.00;100852.97;5043720;28;20830;-67
2022/05/15 08:32:34;;;;;;;12.20;4.25;;;;;;;19.03;100.00;100858.72;5044854;28;20085;-67
2022/05/15 08:35:00;;;;;;;11.85;4.50;;;;;;;19.09;100.00;100852.88;5047161;28;20880;-61
2022/05/15 08:37:26;;;;;;;8.82;4.13;;;;;;;19.15;100.00;100850.59;5048714;28;20081;-61
2022/05/15 08:39:53;;;;;;;8.60;4.22;;;;;;;19.17;100.00;100832.66;5048756;28;20037;-66
2022/05/15 08:42:30;;;;;;;7.93;3.65;;;;;;;19.31;100.00;100843.06;5041173;28;20031;-66
2022/05/15 08:44:59;;;;;;;9.35;4.32;;;;;;;19.37;100.00;100831.91;5041792;28;20043;-66
2022/05/15 08:47:40;;;;;;;6.63;3.40;;;;;;;19.54;100.00;100835.09;5032052;28;20545;-67
2022/05/15 08:50:15;;;;;;;10.13;3.53;;;;;;;19.60;100.00;100821.28;5026835;28;20036;-66
2022/05/15 08:52:46;;;;;;;9.68;3.92;;;;;;;19.69;100.00;100828.53;5030186;28;20040;-66
2022/05/15 08:55:19;;;;;;;8.85;3.97;;;;;;;19.63;100.00;100811.22;5043401;28;20032;-67
2022/05/15 08:58:01;;;;;;;14.23;5.00;;;;;;;19.83;100.00;100825.59;5045331;28;20426;-67
2022/05/15 09:00:32;;;;;;;9.20;4.90;;;;;;;19.98;100.00;100826.97;5047605;28;20922;-67
2022/05/15 09:03:23;;;;;;;12.27;5.07;;;;;;;20.00;96.07;100811.72;5046571;28;20073;-68
2022/05/15 09:06:10;;;;;;;11.95;3.97;;;;;;;20.22;96.26;100826.75;5040363;28;20036;-66
2022/05/15 09:09:01;;;;;;;9.18;3.67;;;;;;;20.28;90.61;100835.13;5044492;28;20041;-67
2022/05/15 09:11:57;;;;;;;8.98;3.97;;;;;;;20.38;92.49;100825.38;5026509;28;20036;-66
2022/05/15 09:14:53;;;;;;;9.85;4.47;;;;;;;20.45;89.73;100832.91;5026981;28;20028;-66
2022/05/15 09:17:35;;;;;;;6.70;3.85;;;;;;;20.43;90.05;100826.81;5025611;28;20136;-66
2022/05/15 09:20:08;;;;;;;7.00;4.05;;;;;;;20.54;88.89;100832.13;5026296;28;20083;-67
2022/05/15 09:22:40;;;;;;;7.63;3.90;;;;;;;20.53;87.67;100827.75;5024713;28;20916;-66
2022/05/15 09:25:11;;;;;;;9.00;4.15;;;;;;;20.57;86.79;100813.16;5026491;28;20039;-67
2022/05/15 09:27:37;;;;;;;6.47;4.05;;;;;;;20.65;86.67;100816.03;5026352;28;20038;-67
2022/05/15 09:30:08;;;;;;;11.38;4.80;;;;;;;20.77;90.42;100833.66;5024797;28;20032;-66
2022/05/15 09:32:40;;;;;;;8.57;4.35;;;;;;;20.45;84.09;100774.16;5050646;28;20028;-66
2022/05/15 09:35:30;;;;;;;7.97;3.95;;;;;;;20.87;84.65;100826.56;5047634;28;20784;-67
2022/05/15 09:43:32;;;;;;;12.90;4.20;;;;;;;21.21;83.24;100838.72;5055237;28;20907;-66
2022/05/15 09:46:12;;;;;;;6.82;3.13;;;;;;;21.34;82.13;100825.97;5043444;28;20024;-66
2022/05/15 09:48:50;;;;;;;10.85;3.97;;;;;;;21.38;82.25;100813.19;5046769;28;20032;-66
2022/05/15 09:51:25;;;;;;;9.35;3.75;;;;;;;21.56;82.03;100829.44;5032738;28;20135;-66
2022/05/15 09:53:52;;;;;;;8.90;3.65;;;;;;;21.62;80.64;100813.66;5042608;28;20057;-66
2022/05/15 09:56:20;;;;;;;6.55;3.15;;;;;;;21.84;83.20;100823.28;5051069;28;21059;-66
2022/05/15 09:58:52;;;;;;;6.22;3.60;;;;;;;21.98;81.16;100820.22;5058254;28;20087;-66
2022/05/15 10:01:23;;;;;;;11.75;4.18;;;;;;;22.10;78.67;100818.28;5051804;28;20883;-67
2022/05/15 10:03:55;;;;;;;11.43;3.95;;;;;;;22.09;77.67;100796.00;5057961;28;20040;-66
2022/05/15 10:06:24;;;;;;;10.68;3.78;;;;;;;22.26;78.65;100807.84;5051711;28;20256;-67
2022/05/15 10:09:25;;;;;;;5.43;3.10;;;;;;;22.39;76.66;100809.25;5052979;28;20047;-67
2022/05/15 10:11:55;;;;;;;9.57;4.78;;;;;;;22.50;75.66;100804.72;5062620;28;20088;-66
2022/05/15 10:14:41;;;;;;;7.78;3.47;;;;;;;22.57;73.11;100795.13;5058301;28;20028;-66
2022/05/15 10:17:07;;;;;;;7.97;3.78;;;;;;;22.60;74.28;100778.75;5050999;28;20820;-66
2022/05/15 10:19:46;;;;;;;11.60;3.85;;;;;;;22.70;76.32;100793.00;5044607;28;20126;-66
2022/05/15 10:22:27;;;;;;;8.10;4.28;;;;;;;22.77;76.19;100791.44;5052477;28;20497;-67
2022/05/15 10:24:53;;;;;;;7.32;3.38;;;;;;;22.75;74.26;100788.03;5045062;28;20025;-67
2022/05/15 10:27:22;;;;;;;8.05;3.90;;;;;;;22.81;73.41;100793.66;5057044;28;21794;-67
2022/05/15 10:29:58;;;;;;;7.18;3.17;;;;;;;22.79;72.30;100795.66;5055910;28;20023;-67
2022/05/15 10:33:05;;;;;;;6.03;3.28;;;;;;;22.89;73.31;100790.25;5054691;28;20552;-66
2022/05/15 10:35:40;;;;;;;4.82;2.50;;;;;;;22.90;71.38;100776.72;5058712;28;20043;-67
2022/05/15 10:38:24;;;;;;;6.10;2.67;;;;;;;23.07;69.09;100784.97;5048303;28;20036;-67
2022/05/15 10:41:19;;;;;;;5.55;2.95;;;;;;;23.15;70.14;100788.59;5057396;28;20050;-67
2022/05/15 10:44:27;;;;;;;7.53;3.33;;;;;;;23.20;67.14;100770.25;5060414;28;20028;-67
2022/05/15 10:46:59;;;;;;;8.30;3.25;;;;;;;23.34;69.33;100779.63;5025952;28;20116;-67
2022/05/15 10:49:39;;;;;;;7.03;3.00;;;;;;;23.51;66.25;100775.31;5025934;28;20043;-67
2022/05/15 10:52:26;;;;;;;8.45;3.45;;;;;;;23.62;66.62;100777.81;5041162;28;20036;-67
2022/05/15 10:58:02;;;;;;;9.48;3.78;;;;;;;23.49;66.45;100767.41;5037643;28;20043;-67
2022/05/15 11:00:53;;;;;;;8.27;3.15;;;;;;;23.56;66.70;100754.25;5041247;28;20102;-67
2022/05/15 11:03:32;;;;;;;11.48;2.88;;;;;;;23.55;64.68;100728.41;5031054;28;20186;-68
2022/05/15 11:06:03;;;;;;;6.03;2.35;;;;;;;23.78;65.11;100743.06;5049607;28;20055;-67
2022/05/15 11:08:45;;;;;;;9.80;3.58;;;;;;;24.05;65.67;100751.03;5061923;28;20028;-66
2022/05/15 11:11:16;;;;;;;8.55;3.47;;;;;;;24.16;63.81;100756.22;5054817;28;20050;-67
2022/05/15 11:13:53;;;;;;;8.70;3.00;;;;;;;24.30;66.44;100738.69;5044567;28;20024;-67
2022/05/15 11:16:56;;;;;;;5.65;2.85;;;;;;;24.63;66.37;100726.31;5049267;28;20143;-67
2022/05/15 11:19:35;;;;;;;7.88;3.13;;;;;;;25.10;63.99;100746.41;5032378;28;20056;-67
2022/05/15 11:22:06;;;;;;;8.73;3.45;;;;;;;25.25;65.18;100725.94;5042623;28;20031;-67
2022/05/15 11:25:13;;;;;;;6.43;3.33;;;;;;;25.66;63.32;100735.00;5052699;28;20048;-67
2022/05/15 11:27:49;;;;;;;8.93;2.88;;;;;;;26.01;63.71;100731.16;5047096;28;20128;-68
2022/05/15 11:30:27;;;;;;;8.10;2.80;;;;;;;26.07;59.93;100722.41;5068918;28;20043;-67
2022/05/15 11:32:52;;;;;;;6.72;2.70;;;;;;;26.14;61.60;100715.34;5061941;28;20083;-68
2022/05/15 11:35:18;;;;;;;7.80;2.83;;;;;;;26.52;61.09;100715.66;5052005;28;20940;-68
2022/05/15 11:37:54;;;;;;;15.68;3.28;;;;;;;27.22;63.39;100701.25;5048394;28;20362;-68
2022/05/15 11:40:42;;;;;;;9.55;2.90;;;;;;;27.85;58.06;100708.28;5045185;28;20116;-67
2022/05/15 11:43:26;;;;;;;5.85;2.83;;;;;;;28.58;53.76;100705.78;5028486;28;20099;-69
2022/05/15 11:45:53;;;;;;;5.05;2.60;;;;;;;29.09;53.04;100695.06;5028668;28;20029;-70